sensor_id;sensor_type;location;lat;lon;timestamp;P1;P2;P0
60245;PMS5003;46107;53.356;-1.524;2023-04-19T00:00:49;33;32;
60245;PMS5003;46107;53.356;-1.524;2023-04-19T00:03:16;37;35;
60245;PMS5003;46107;53.356;-1.524;2023-04-19T00:05:44;35;32;
60245;PMS5003;46107;53.356;-1.524;2023-04-19T00:08:12;33;28;
60245;PMS5003;46107;53.356;-1.524;2023-04-19T00:10:39;36;31;
60245;PMS5003;46107;53.356;-1.524;2023-04-19T00:13:07;34;29;
60245;PMS5003;46107;53.356;-1.524;2023-04-19T00:15:36;35;33;
60245;PMS5003;46107;53.356;-1.524;2023-04-19T00:18:04;40;33;
60245;PMS5003;46107;53.356;-1.524;2023-04-19T00:20:31;40;34;
60245;PMS5003;46107;53.356;-1.524;2023-04-19T00:22:59;35;31;
60245;PMS5003;46107;53.356;-1.524;2023-04-19T00:25:26;40;34;
60245;PMS5003;46107;53.356;-1.524;2023-04-19T00:27:54;37;33;
60245;PMS5003;46107;53.356;-1.524;2023-04-19T00:30:22;35;33;
60245;PMS5003;46107;53.356;-1.524;2023-04-19T00:32:49;39;36;
60245;PMS5003;46107;53.356;-1.524;2023-04-19T00:35:17;38;34;
60245;PMS5003;46107;53.356;-1.524;2023-04-19T00:37:45;40;35;
60245;PMS5003;46107;53.356;-1.524;2023-04-19T00:40:13;41;31;
60245;PMS5003;46107;53.356;-1.524;2023-04-19T00:42:41;34;31;
60245;PMS5003;46107;53.356;-1.524;2023-04-19T00:45:09;41;35;
60245;PMS5003;46107;53.356;-1.524;2023-04-19T00:47:37;31;26;
60245;PMS5003;46107;53.356;-1.524;2023-04-19T00:50:05;34;33;
60245;PMS5003;46107;53.356;-1.524;2023-04-19T00:52:33;33;31;
60245;PMS5003;46107;53.356;-1.524;2023-04-19T00:55:01;32;30;
60245;PMS5003;46107;53.356;-1.524;2023-04-19T00:57:30;33;29;
60245;PMS5003;46107;53.356;-1.524;2023-04-19T00:59:57;34;30;
60245;PMS5003;46107;53.356;-1.524;2023-04-19T01:02:26;34;31;
60245;PMS5003;46107;53.356;-1.524;2023-04-19T01:04:53;35;31;
60245;PMS5003;46107;53.356;-1.524;2023-04-19T01:07:20;34;32;
60245;PMS5003;46107;53.356;-1.524;2023-04-19T01:09:48;33;31;
60245;PMS5003;46107;53.356;-1.524;2023-04-19T01:12:16;30;29;
60245;PMS5003;46107;53.356;-1.524;2023-04-19T01:14:43;39;33;
60245;PMS5003;46107;53.356;-1.524;2023-04-19T01:17:11;35;29;
60245;PMS5003;46107;53.356;-1.524;2023-04-19T01:19:38;33;29;
60245;PMS5003;46107;53.356;-1.524;2023-04-19T01:22:06;34;30;
60245;PMS5003;46107;53.356;-1.524;2023-04-19T01:24:33;39;32;
60245;PMS5003;46107;53.356;-1.524;2023-04-19T01:27:00;31;29;
60245;PMS5003;46107;53.356;-1.524;2023-04-19T01:29:28;36;31;
60245;PMS5003;46107;53.356;-1.524;2023-04-19T01:31:56;37;31;
60245;PMS5003;46107;53.356;-1.524;2023-04-19T01:34:23;37;32;
60245;PMS5003;46107;53.356;-1.524;2023-04-19T01:36:51;34;29;
60245;PMS5003;46107;53.356;-1.524;2023-04-19T01:39:19;36;34;
60245;PMS5003;46107;53.356;-1.524;2023-04-19T01:41:46;34;29;
60245;PMS5003;46107;53.356;-1.524;2023-04-19T01:44:14;31;30;
60245;PMS5003;46107;53.356;-1.524;2023-04-19T01:46:42;38;32;
60245;PMS5003;46107;53.356;-1.524;2023-04-19T01:49:09;36;32;
60245;PMS5003;46107;53.356;-1.524;2023-04-19T01:51:37;34;28;
60245;PMS5003;46107;53.356;-1.524;2023-04-19T01:54:05;31;29;
60245;PMS5003;46107;53.356;-1.524;2023-04-19T01:56:33;31;29;
60245;PMS5003;46107;53.356;-1.524;2023-04-19T01:59:00;33;30;
60245;PMS5003;46107;53.356;-1.524;2023-04-19T02:01:28;34;31;
60245;PMS5003;46107;53.356;-1.524;2023-04-19T02:03:56;41;38;
60245;PMS5003;46107;53.356;-1.524;2023-04-19T02:06:24;36;29;
60245;PMS5003;46107;53.356;-1.524;2023-04-19T02:08:52;36;32;
60245;PMS5003;46107;53.356;-1.524;2023-04-19T02:11:20;31;31;
60245;PMS5003;46107;53.356;-1.524;2023-04-19T02:13:48;31;29;
60245;PMS5003;46107;53.356;-1.524;2023-04-19T02:16:16;32;31;
60245;PMS5003;46107;53.356;-1.524;2023-04-19T02:18:44;35;31;
60245;PMS5003;46107;53.356;-1.524;2023-04-19T02:21:12;34;29;
60245;PMS5003;46107;53.356;-1.524;2023-04-19T02:23:39;28;28;
60245;PMS5003;46107;53.356;-1.524;2023-04-19T02:26:07;36;31;
60245;PMS5003;46107;53.356;-1.524;2023-04-19T02:28:34;36;29;
60245;PMS5003;46107;53.356;-1.524;2023-04-19T02:31:03;34;28;
60245;PMS5003;46107;53.356;-1.524;2023-04-19T02:33:31;35;34;
60245;PMS5003;46107;53.356;-1.524;2023-04-19T02:36:00;35;27;
60245;PMS5003;46107;53.356;-1.524;2023-04-19T02:38:28;33;29;
60245;PMS5003;46107;53.356;-1.524;2023-04-19T02:40:55;32;30;
60245;PMS5003;46107;53.356;-1.524;2023-04-19T02:43:23;36;32;
60245;PMS5003;46107;53.356;-1.524;2023-04-19T02:45:50;33;29;
60245;PMS5003;46107;53.356;-1.524;2023-04-19T02:48:17;26;25;
60245;PMS5003;46107;53.356;-1.524;2023-04-19T02:50:50;35;28;
60245;PMS5003;46107;53.356;-1.524;2023-04-19T02:53:17;34;29;
60245;PMS5003;46107;53.356;-1.524;2023-04-19T02:55:45;32;29;
60245;PMS5003;46107;53.356;-1.524;2023-04-19T02:58:13;33;29;
60245;PMS5003;46107;53.356;-1.524;2023-04-19T03:00:41;27;27;
60245;PMS5003;46107;53.356;-1.524;2023-04-19T03:03:09;34;29;
60245;PMS5003;46107;53.356;-1.524;2023-04-19T03:05:36;35;32;
60245;PMS5003;46107;53.356;-1.524;2023-04-19T03:08:04;33;28;
60245;PMS5003;46107;53.356;-1.524;2023-04-19T03:10:32;38;34;
60245;PMS5003;46107;53.356;-1.524;2023-04-19T03:12:59;31;28;
60245;PMS5003;46107;53.356;-1.524;2023-04-19T03:15:26;33;30;
60245;PMS5003;46107;53.356;-1.524;2023-04-19T03:17:54;32;29;
60245;PMS5003;46107;53.356;-1.524;2023-04-19T03:20:21;30;26;
60245;PMS5003;46107;53.356;-1.524;2023-04-19T03:22:49;29;26;
60245;PMS5003;46107;53.356;-1.524;2023-04-19T03:25:17;30;28;
60245;PMS5003;46107;53.356;-1.524;2023-04-19T03:27:44;35;27;
60245;PMS5003;46107;53.356;-1.524;2023-04-19T03:30:12;31;27;
60245;PMS5003;46107;53.356;-1.524;2023-04-19T03:32:39;29;29;
60245;PMS5003;46107;53.356;-1.524;2023-04-19T03:35:07;32;32;
60245;PMS5003;46107;53.356;-1.524;2023-04-19T03:37:35;32;28;
60245;PMS5003;46107;53.356;-1.524;2023-04-19T03:40:02;31;27;
60245;PMS5003;46107;53.356;-1.524;2023-04-19T03:42:30;34;32;
60245;PMS5003;46107;53.356;-1.524;2023-04-19T03:44:58;34;28;
60245;PMS5003;46107;53.356;-1.524;2023-04-19T03:47:26;28;25;
60245;PMS5003;46107;53.356;-1.524;2023-04-19T03:49:53;35;30;
60245;PMS5003;46107;53.356;-1.524;2023-04-19T03:52:20;27;25;
60245;PMS5003;46107;53.356;-1.524;2023-04-19T03:54:48;40;30;
60245;PMS5003;46107;53.356;-1.524;2023-04-19T03:57:16;34;33;
60245;PMS5003;46107;53.356;-1.524;2023-04-19T03:59:44;28;26;
60245;PMS5003;46107;53.356;-1.524;2023-04-19T04:02:12;30;27;
60245;PMS5003;46107;53.356;-1.524;2023-04-19T04:04:39;35;32;
60245;PMS5003;46107;53.356;-1.524;2023-04-19T04:07:06;30;24;
60245;PMS5003;46107;53.356;-1.524;2023-04-19T04:09:34;32;29;
60245;PMS5003;46107;53.356;-1.524;2023-04-19T04:12:01;30;26;
60245;PMS5003;46107;53.356;-1.524;2023-04-19T04:14:29;34;30;
60245;PMS5003;46107;53.356;-1.524;2023-04-19T04:16:55;31;29;
60245;PMS5003;46107;53.356;-1.524;2023-04-19T04:19:23;38;31;
60245;PMS5003;46107;53.356;-1.524;2023-04-19T04:21:51;29;26;
60245;PMS5003;46107;53.356;-1.524;2023-04-19T04:24:19;36;33;
60245;PMS5003;46107;53.356;-1.524;2023-04-19T04:26:47;40;34;
60245;PMS5003;46107;53.356;-1.524;2023-04-19T04:29:14;29;29;
60245;PMS5003;46107;53.356;-1.524;2023-04-19T04:31:41;33;28;
60245;PMS5003;46107;53.356;-1.524;2023-04-19T04:34:09;32;28;
60245;PMS5003;46107;53.356;-1.524;2023-04-19T04:36:36;31;29;
60245;PMS5003;46107;53.356;-1.524;2023-04-19T04:39:03;39;32;
60245;PMS5003;46107;53.356;-1.524;2023-04-19T04:41:31;37;31;
60245;PMS5003;46107;53.356;-1.524;2023-04-19T04:43:59;38;32;
60245;PMS5003;46107;53.356;-1.524;2023-04-19T04:46:26;39;38;
60245;PMS5003;46107;53.356;-1.524;2023-04-19T04:48:54;41;36;
60245;PMS5003;46107;53.356;-1.524;2023-04-19T04:51:22;39;36;
60245;PMS5003;46107;53.356;-1.524;2023-04-19T04:53:50;40;38;
60245;PMS5003;46107;53.356;-1.524;2023-04-19T04:56:17;43;36;
60245;PMS5003;46107;53.356;-1.524;2023-04-19T04:58:45;38;36;
60245;PMS5003;46107;53.356;-1.524;2023-04-19T05:01:12;39;36;
60245;PMS5003;46107;53.356;-1.524;2023-04-19T05:03:40;36;34;
60245;PMS5003;46107;53.356;-1.524;2023-04-19T05:06:07;45;38;
60245;PMS5003;46107;53.356;-1.524;2023-04-19T05:08:34;35;32;
60245;PMS5003;46107;53.356;-1.524;2023-04-19T05:11:02;40;38;
60245;PMS5003;46107;53.356;-1.524;2023-04-19T05:13:30;43;33;
60245;PMS5003;46107;53.356;-1.524;2023-04-19T05:15:58;36;31;
60245;PMS5003;46107;53.356;-1.524;2023-04-19T05:18:25;36;34;
60245;PMS5003;46107;53.356;-1.524;2023-04-19T05:20:52;37;35;
60245;PMS5003;46107;53.356;-1.524;2023-04-19T05:23:20;48;46;
60245;PMS5003;46107;53.356;-1.524;2023-04-19T05:25:47;53;46;
60245;PMS5003;46107;53.356;-1.524;2023-04-19T05:28:17;41;38;
60245;PMS5003;46107;53.356;-1.524;2023-04-19T05:30:44;45;41;
60245;PMS5003;46107;53.356;-1.524;2023-04-19T05:33:12;42;37;
60245;PMS5003;46107;53.356;-1.524;2023-04-19T05:35:41;42;38;
60245;PMS5003;46107;53.356;-1.524;2023-04-19T05:38:08;39;37;
60245;PMS5003;46107;53.356;-1.524;2023-04-19T05:40:35;41;38;
60245;PMS5003;46107;53.356;-1.524;2023-04-19T05:43:03;39;35;
60245;PMS5003;46107;53.356;-1.524;2023-04-19T05:45:30;45;43;
60245;PMS5003;46107;53.356;-1.524;2023-04-19T05:47:58;39;37;
60245;PMS5003;46107;53.356;-1.524;2023-04-19T05:50:25;40;35;
60245;PMS5003;46107;53.356;-1.524;2023-04-19T05:52:53;50;40;
60245;PMS5003;46107;53.356;-1.524;2023-04-19T05:55:20;47;40;
60245;PMS5003;46107;53.356;-1.524;2023-04-19T05:57:47;40;37;
60245;PMS5003;46107;53.356;-1.524;2023-04-19T06:00:15;42;38;
60245;PMS5003;46107;53.356;-1.524;2023-04-19T06:02:43;41;36;
60245;PMS5003;46107;53.356;-1.524;2023-04-19T06:05:11;47;46;
60245;PMS5003;46107;53.356;-1.524;2023-04-19T06:07:38;42;38;
60245;PMS5003;46107;53.356;-1.524;2023-04-19T06:10:06;53;47;
60245;PMS5003;46107;53.356;-1.524;2023-04-19T06:12:34;38;38;
60245;PMS5003;46107;53.356;-1.524;2023-04-19T06:15:02;49;42;
60245;PMS5003;46107;53.356;-1.524;2023-04-19T06:17:30;53;44;
60245;PMS5003;46107;53.356;-1.524;2023-04-19T06:19:58;48;40;
60245;PMS5003;46107;53.356;-1.524;2023-04-19T06:22:25;48;40;
60245;PMS5003;46107;53.356;-1.524;2023-04-19T06:24:53;47;41;
60245;PMS5003;46107;53.356;-1.524;2023-04-19T06:27:20;44;37;
60245;PMS5003;46107;53.356;-1.524;2023-04-19T06:29:48;46;38;
60245;PMS5003;46107;53.356;-1.524;2023-04-19T06:32:16;48;43;
60245;PMS5003;46107;53.356;-1.524;2023-04-19T06:34:43;42;41;
60245;PMS5003;46107;53.356;-1.524;2023-04-19T06:37:10;48;42;
60245;PMS5003;46107;53.356;-1.524;2023-04-19T06:39:37;53;42;
60245;PMS5003;46107;53.356;-1.524;2023-04-19T06:42:05;44;38;
60245;PMS5003;46107;53.356;-1.524;2023-04-19T06:44:33;50;45;
60245;PMS5003;46107;53.356;-1.524;2023-04-19T06:47:00;50;43;
60245;PMS5003;46107;53.356;-1.524;2023-04-19T06:49:28;43;41;
60245;PMS5003;46107;53.356;-1.524;2023-04-19T06:51:55;45;42;
60245;PMS5003;46107;53.356;-1.524;2023-04-19T06:54:26;46;44;
60245;PMS5003;46107;53.356;-1.524;2023-04-19T06:56:54;56;50;
60245;PMS5003;46107;53.356;-1.524;2023-04-19T06:59:22;52;47;
60245;PMS5003;46107;53.356;-1.524;2023-04-19T07:01:50;50;45;
60245;PMS5003;46107;53.356;-1.524;2023-04-19T07:04:18;58;47;
60245;PMS5003;46107;53.356;-1.524;2023-04-19T07:06:47;59;48;
60245;PMS5003;46107;53.356;-1.524;2023-04-19T07:09:15;54;44;
60245;PMS5003;46107;53.356;-1.524;2023-04-19T07:11:43;48;45;
60245;PMS5003;46107;53.356;-1.524;2023-04-19T07:14:11;63;57;
60245;PMS5003;46107;53.356;-1.524;2023-04-19T07:16:38;54;48;
60245;PMS5003;46107;53.356;-1.524;2023-04-19T07:19:07;57;48;
60245;PMS5003;46107;53.356;-1.524;2023-04-19T07:21:34;64;54;
60245;PMS5003;46107;53.356;-1.524;2023-04-19T07:24:01;65;55;
60245;PMS5003;46107;53.356;-1.524;2023-04-19T07:26:29;61;55;
60245;PMS5003;46107;53.356;-1.524;2023-04-19T07:28:56;60;55;
60245;PMS5003;46107;53.356;-1.524;2023-04-19T07:31:25;59;56;
60245;PMS5003;46107;53.356;-1.524;2023-04-19T07:33:53;60;51;
60245;PMS5003;46107;53.356;-1.524;2023-04-19T07:36:22;61;57;
60245;PMS5003;46107;53.356;-1.524;2023-04-19T07:38:50;64;59;
60245;PMS5003;46107;53.356;-1.524;2023-04-19T07:41:17;70;62;
60245;PMS5003;46107;53.356;-1.524;2023-04-19T07:43:45;61;56;
60245;PMS5003;46107;53.356;-1.524;2023-04-19T07:46:13;64;61;
60245;PMS5003;46107;53.356;-1.524;2023-04-19T07:48:41;68;57;
60245;PMS5003;46107;53.356;-1.524;2023-04-19T07:51:09;66;59;
60245;PMS5003;46107;53.356;-1.524;2023-04-19T07:53:37;79;65;
60245;PMS5003;46107;53.356;-1.524;2023-04-19T07:56:06;73;63;
60245;PMS5003;46107;53.356;-1.524;2023-04-19T07:58:34;70;64;
60245;PMS5003;46107;53.356;-1.524;2023-04-19T08:01:02;70;61;
60245;PMS5003;46107;53.356;-1.524;2023-04-19T08:03:30;71;62;
60245;PMS5003;46107;53.356;-1.524;2023-04-19T08:06:00;71;63;
60245;PMS5003;46107;53.356;-1.524;2023-04-19T08:08:28;77;70;
60245;PMS5003;46107;53.356;-1.524;2023-04-19T08:10:56;76;63;
60245;PMS5003;46107;53.356;-1.524;2023-04-19T08:13:23;67;60;
60245;PMS5003;46107;53.356;-1.524;2023-04-19T08:15:51;69;63;
60245;PMS5003;46107;53.356;-1.524;2023-04-19T08:18:18;73;68;
60245;PMS5003;46107;53.356;-1.524;2023-04-19T08:20:46;82;70;
60245;PMS5003;46107;53.356;-1.524;2023-04-19T08:23:13;67;63;
60245;PMS5003;46107;53.356;-1.524;2023-04-19T08:25:41;66;64;
60245;PMS5003;46107;53.356;-1.524;2023-04-19T08:28:09;75;69;
60245;PMS5003;46107;53.356;-1.524;2023-04-19T08:30:37;70;59;
60245;PMS5003;46107;53.356;-1.524;2023-04-19T08:33:06;80;68;
60245;PMS5003;46107;53.356;-1.524;2023-04-19T08:35:33;78;68;
60245;PMS5003;46107;53.356;-1.524;2023-04-19T08:38:01;79;69;
60245;PMS5003;46107;53.356;-1.524;2023-04-19T08:40:29;78;72;
60245;PMS5003;46107;53.356;-1.524;2023-04-19T08:42:56;83;71;
60245;PMS5003;46107;53.356;-1.524;2023-04-19T08:45:26;82;74;
60245;PMS5003;46107;53.356;-1.524;2023-04-19T08:47:55;76;65;
60245;PMS5003;46107;53.356;-1.524;2023-04-19T08:50:24;77;67;
60245;PMS5003;46107;53.356;-1.524;2023-04-19T08:52:53;72;64;
60245;PMS5003;46107;53.356;-1.524;2023-04-19T08:55:21;67;60;
60245;PMS5003;46107;53.356;-1.524;2023-04-19T08:57:49;68;65;
60245;PMS5003;46107;53.356;-1.524;2023-04-19T09:00:17;67;65;
60245;PMS5003;46107;53.356;-1.524;2023-04-19T09:02:45;80;73;
60245;PMS5003;46107;53.356;-1.524;2023-04-19T09:05:15;67;63;
60245;PMS5003;46107;53.356;-1.524;2023-04-19T09:07:47;68;64;
60245;PMS5003;46107;53.356;-1.524;2023-04-19T09:10:15;64;57;
60245;PMS5003;46107;53.356;-1.524;2023-04-19T09:12:58;61;53;
60245;PMS5003;46107;53.356;-1.524;2023-04-19T09:15:34;64;57;
60245;PMS5003;46107;53.356;-1.524;2023-04-19T09:18:03;64;56;
60245;PMS5003;46107;53.356;-1.524;2023-04-19T09:20:36;62;54;
60245;PMS5003;46107;53.356;-1.524;2023-04-19T09:23:05;60;58;
60245;PMS5003;46107;53.356;-1.524;2023-04-19T09:25:38;68;61;
60245;PMS5003;46107;53.356;-1.524;2023-04-19T09:28:09;61;56;
60245;PMS5003;46107;53.356;-1.524;2023-04-19T09:30:37;60;51;
60245;PMS5003;46107;53.356;-1.524;2023-04-19T09:33:05;63;58;
60245;PMS5003;46107;53.356;-1.524;2023-04-19T09:35:41;61;57;
60245;PMS5003;46107;53.356;-1.524;2023-04-19T09:38:10;57;52;
60245;PMS5003;46107;53.356;-1.524;2023-04-19T09:40:39;58;54;
60245;PMS5003;46107;53.356;-1.524;2023-04-19T09:43:08;53;52;
60245;PMS5003;46107;53.356;-1.524;2023-04-19T09:45:39;50;45;
60245;PMS5003;46107;53.356;-1.524;2023-04-19T09:48:08;51;49;
60245;PMS5003;46107;53.356;-1.524;2023-04-19T09:50:49;65;57;
60245;PMS5003;46107;53.356;-1.524;2023-04-19T09:53:18;60;57;
60245;PMS5003;46107;53.356;-1.524;2023-04-19T09:55:46;48;42;
60245;PMS5003;46107;53.356;-1.524;2023-04-19T09:58:13;46;45;
60245;PMS5003;46107;53.356;-1.524;2023-04-19T10:00:40;54;47;
60245;PMS5003;46107;53.356;-1.524;2023-04-19T10:03:11;46;41;
60245;PMS5003;46107;53.356;-1.524;2023-04-19T10:05:40;40;37;
60245;PMS5003;46107;53.356;-1.524;2023-04-19T10:08:09;42;41;
60245;PMS5003;46107;53.356;-1.524;2023-04-19T10:10:39;52;46;
60245;PMS5003;46107;53.356;-1.524;2023-04-19T10:13:09;52;48;
60245;PMS5003;46107;53.356;-1.524;2023-04-19T10:15:37;43;38;
60245;PMS5003;46107;53.356;-1.524;2023-04-19T10:18:07;50;44;
60245;PMS5003;46107;53.356;-1.524;2023-04-19T10:20:38;50;42;
60245;PMS5003;46107;53.356;-1.524;2023-04-19T10:23:13;43;40;
60245;PMS5003;46107;53.356;-1.524;2023-04-19T10:25:44;43;38;
60245;PMS5003;46107;53.356;-1.524;2023-04-19T10:28:13;50;44;
60245;PMS5003;46107;53.356;-1.524;2023-04-19T10:30:51;47;43;
60245;PMS5003;46107;53.356;-1.524;2023-04-19T10:33:23;46;46;
60245;PMS5003;46107;53.356;-1.524;2023-04-19T10:35:55;49;38;
60245;PMS5003;46107;53.356;-1.524;2023-04-19T10:38:39;43;39;
60245;PMS5003;46107;53.356;-1.524;2023-04-19T10:41:09;40;37;
60245;PMS5003;46107;53.356;-1.524;2023-04-19T10:43:37;40;38;
60245;PMS5003;46107;53.356;-1.524;2023-04-19T10:46:06;49;42;
60245;PMS5003;46107;53.356;-1.524;2023-04-19T10:48:37;37;35;
60245;PMS5003;46107;53.356;-1.524;2023-04-19T10:51:13;40;39;
60245;PMS5003;46107;53.356;-1.524;2023-04-19T10:53:42;46;42;
60245;PMS5003;46107;53.356;-1.524;2023-04-19T10:56:12;44;39;
60245;PMS5003;46107;53.356;-1.524;2023-04-19T10:59:15;39;34;
60245;PMS5003;46107;53.356;-1.524;2023-04-19T11:01:44;35;32;
60245;PMS5003;46107;53.356;-1.524;2023-04-19T11:04:13;37;33;
60245;PMS5003;46107;53.356;-1.524;2023-04-19T11:06:55;36;30;
60245;PMS5003;46107;53.356;-1.524;2023-04-19T11:09:27;36;29;
60245;PMS5003;46107;53.356;-1.524;2023-04-19T11:11:58;35;32;
60245;PMS5003;46107;53.356;-1.524;2023-04-19T11:14:29;33;33;
60245;PMS5003;46107;53.356;-1.524;2023-04-19T11:16:59;30;26;
60245;PMS5003;46107;53.356;-1.524;2023-04-19T11:19:30;30;29;
60245;PMS5003;46107;53.356;-1.524;2023-04-19T11:21:57;35;32;
60245;PMS5003;46107;53.356;-1.524;2023-04-19T11:24:25;28;25;
60245;PMS5003;46107;53.356;-1.524;2023-04-19T11:27:00;22;21;
60245;PMS5003;46107;53.356;-1.524;2023-04-19T11:29:34;27;25;
60245;PMS5003;46107;53.356;-1.524;2023-04-19T11:32:01;29;24;
60245;PMS5003;46107;53.356;-1.524;2023-04-19T11:34:37;30;26;
60245;PMS5003;46107;53.356;-1.524;2023-04-19T11:37:07;28;27;
60245;PMS5003;46107;53.356;-1.524;2023-04-19T11:39:43;26;23;
60245;PMS5003;46107;53.356;-1.524;2023-04-19T11:42:16;27;24;
60245;PMS5003;46107;53.356;-1.524;2023-04-19T11:44:49;30;27;
60245;PMS5003;46107;53.356;-1.524;2023-04-19T11:47:18;27;25;
60245;PMS5003;46107;53.356;-1.524;2023-04-19T11:49:46;32;32;
60245;PMS5003;46107;53.356;-1.524;2023-04-19T11:52:18;30;28;
60245;PMS5003;46107;53.356;-1.524;2023-04-19T11:54:48;30;27;
60245;PMS5003;46107;53.356;-1.524;2023-04-19T11:57:25;26;25;
60245;PMS5003;46107;53.356;-1.524;2023-04-19T12:00:01;27;23;
60245;PMS5003;46107;53.356;-1.524;2023-04-19T12:02:30;29;27;
60245;PMS5003;46107;53.356;-1.524;2023-04-19T12:05:06;30;28;
60245;PMS5003;46107;53.356;-1.524;2023-04-19T12:07:35;31;27;
60245;PMS5003;46107;53.356;-1.524;2023-04-19T12:10:10;30;28;
60245;PMS5003;46107;53.356;-1.524;2023-04-19T12:12:38;31;27;
60245;PMS5003;46107;53.356;-1.524;2023-04-19T12:15:07;28;24;
60245;PMS5003;46107;53.356;-1.524;2023-04-19T12:17:34;26;23;
60245;PMS5003;46107;53.356;-1.524;2023-04-19T12:20:30;21;21;
60245;PMS5003;46107;53.356;-1.524;2023-04-19T12:22:58;20;19;
60245;PMS5003;46107;53.356;-1.524;2023-04-19T12:25:27;25;23;
60245;PMS5003;46107;53.356;-1.524;2023-04-19T12:27:55;26;25;
60245;PMS5003;46107;53.356;-1.524;2023-04-19T12:30:28;23;20;
60245;PMS5003;46107;53.356;-1.524;2023-04-19T12:32:57;24;19;
60245;PMS5003;46107;53.356;-1.524;2023-04-19T12:35:25;24;22;
60245;PMS5003;46107;53.356;-1.524;2023-04-19T12:37:56;21;21;
60245;PMS5003;46107;53.356;-1.524;2023-04-19T12:40:25;24;23;
60245;PMS5003;46107;53.356;-1.524;2023-04-19T12:42:54;15;15;
60245;PMS5003;46107;53.356;-1.524;2023-04-19T12:45:22;17;16;
60245;PMS5003;46107;53.356;-1.524;2023-04-19T12:47:50;18;17;
60245;PMS5003;46107;53.356;-1.524;2023-04-19T12:50:18;19;18;
60245;PMS5003;46107;53.356;-1.524;2023-04-19T12:52:46;22;21;
60245;PMS5003;46107;53.356;-1.524;2023-04-19T12:55:14;19;19;
60245;PMS5003;46107;53.356;-1.524;2023-04-19T12:57:42;20;17;
60245;PMS5003;46107;53.356;-1.524;2023-04-19T13:00:10;22;18;
60245;PMS5003;46107;53.356;-1.524;2023-04-19T13:02:38;17;17;
60245;PMS5003;46107;53.356;-1.524;2023-04-19T13:05:05;14;12;
60245;PMS5003;46107;53.356;-1.524;2023-04-19T13:07:33;15;15;
60245;PMS5003;46107;53.356;-1.524;2023-04-19T13:10:01;13;13;
60245;PMS5003;46107;53.356;-1.524;2023-04-19T13:12:28;20;18;
60245;PMS5003;46107;53.356;-1.524;2023-04-19T13:14:56;14;13;
60245;PMS5003;46107;53.356;-1.524;2023-04-19T13:17:23;18;16;
60245;PMS5003;46107;53.356;-1.524;2023-04-19T13:19:51;20;19;
60245;PMS5003;46107;53.356;-1.524;2023-04-19T13:22:20;21;17;
60245;PMS5003;46107;53.356;-1.524;2023-04-19T13:24:48;13;12;
60245;PMS5003;46107;53.356;-1.524;2023-04-19T13:27:17;13;13;
60245;PMS5003;46107;53.356;-1.524;2023-04-19T13:29:44;18;14;
60245;PMS5003;46107;53.356;-1.524;2023-04-19T13:32:12;17;13;
60245;PMS5003;46107;53.356;-1.524;2023-04-19T13:34:41;15;14;
60245;PMS5003;46107;53.356;-1.524;2023-04-19T13:37:08;17;15;
60245;PMS5003;46107;53.356;-1.524;2023-04-19T13:39:36;17;16;
60245;PMS5003;46107;53.356;-1.524;2023-04-19T13:42:04;15;14;
60245;PMS5003;46107;53.356;-1.524;2023-04-19T13:44:32;14;14;
60245;PMS5003;46107;53.356;-1.524;2023-04-19T13:46:59;14;13;
60245;PMS5003;46107;53.356;-1.524;2023-04-19T13:49:27;13;12;
60245;PMS5003;46107;53.356;-1.524;2023-04-19T13:52:00;13;11;
60245;PMS5003;46107;53.356;-1.524;2023-04-19T13:54:30;12;11;
60245;PMS5003;46107;53.356;-1.524;2023-04-19T13:56:57;10;10;
60245;PMS5003;46107;53.356;-1.524;2023-04-19T13:59:25;13;11;
60245;PMS5003;46107;53.356;-1.524;2023-04-19T14:01:53;9;9;
60245;PMS5003;46107;53.356;-1.524;2023-04-19T14:04:21;10;8;
60245;PMS5003;46107;53.356;-1.524;2023-04-19T14:06:50;8;7;
60245;PMS5003;46107;53.356;-1.524;2023-04-19T14:09:23;9;8;
60245;PMS5003;46107;53.356;-1.524;2023-04-19T14:11:52;8;7;
60245;PMS5003;46107;53.356;-1.524;2023-04-19T14:14:19;6;6;
60245;PMS5003;46107;53.356;-1.524;2023-04-19T14:16:47;5;4;
60245;PMS5003;46107;53.356;-1.524;2023-04-19T14:19:15;8;8;
60245;PMS5003;46107;53.356;-1.524;2023-04-19T14:21:42;6;6;
60245;PMS5003;46107;53.356;-1.524;2023-04-19T14:24:09;7;7;
60245;PMS5003;46107;53.356;-1.524;2023-04-19T14:26:37;4;3;
60245;PMS5003;46107;53.356;-1.524;2023-04-19T14:29:05;6;5;
60245;PMS5003;46107;53.356;-1.524;2023-04-19T14:31:33;4;4;
60245;PMS5003;46107;53.356;-1.524;2023-04-19T14:34:01;6;5;
60245;PMS5003;46107;53.356;-1.524;2023-04-19T14:36:29;4;4;
60245;PMS5003;46107;53.356;-1.524;2023-04-19T14:38:56;5;4;
60245;PMS5003;46107;53.356;-1.524;2023-04-19T14:41:24;4;4;
60245;PMS5003;46107;53.356;-1.524;2023-04-19T14:43:51;7;5;
60245;PMS5003;46107;53.356;-1.524;2023-04-19T14:46:18;4;4;
60245;PMS5003;46107;53.356;-1.524;2023-04-19T14:48:46;5;4;
60245;PMS5003;46107;53.356;-1.524;2023-04-19T14:51:14;3;3;
60245;PMS5003;46107;53.356;-1.524;2023-04-19T14:53:42;6;4;
60245;PMS5003;46107;53.356;-1.524;2023-04-19T14:56:10;5;4;
60245;PMS5003;46107;53.356;-1.524;2023-04-19T14:58:37;3;3;
60245;PMS5003;46107;53.356;-1.524;2023-04-19T15:01:12;5;4;
60245;PMS5003;46107;53.356;-1.524;2023-04-19T15:03:41;2;2;
60245;PMS5003;46107;53.356;-1.524;2023-04-19T15:06:08;3;3;
60245;PMS5003;46107;53.356;-1.524;2023-04-19T15:08:36;4;2;
60245;PMS5003;46107;53.356;-1.524;2023-04-19T15:11:05;5;3;
60245;PMS5003;46107;53.356;-1.524;2023-04-19T15:13:33;7;5;
60245;PMS5003;46107;53.356;-1.524;2023-04-19T15:16:00;1;1;
60245;PMS5003;46107;53.356;-1.524;2023-04-19T15:18:33;3;3;
60245;PMS5003;46107;53.356;-1.524;2023-04-19T15:21:01;6;3;
60245;PMS5003;46107;53.356;-1.524;2023-04-19T15:23:29;4;4;
60245;PMS5003;46107;53.356;-1.524;2023-04-19T15:25:57;4;2;
60245;PMS5003;46107;53.356;-1.524;2023-04-19T15:28:25;4;3;
60245;PMS5003;46107;53.356;-1.524;2023-04-19T15:30:55;3;3;
60245;PMS5003;46107;53.356;-1.524;2023-04-19T15:33:25;3;3;
60245;PMS5003;46107;53.356;-1.524;2023-04-19T15:35:52;3;3;
60245;PMS5003;46107;53.356;-1.524;2023-04-19T15:38:21;3;3;
60245;PMS5003;46107;53.356;-1.524;2023-04-19T15:40:51;3;3;
60245;PMS5003;46107;53.356;-1.524;2023-04-19T15:43:20;3;3;
60245;PMS5003;46107;53.356;-1.524;2023-04-19T15:45:48;2;2;
60245;PMS5003;46107;53.356;-1.524;2023-04-19T15:48:16;2;2;
60245;PMS5003;46107;53.356;-1.524;2023-04-19T15:50:45;5;3;
60245;PMS5003;46107;53.356;-1.524;2023-04-19T15:53:12;2;2;
60245;PMS5003;46107;53.356;-1.524;2023-04-19T15:55:40;3;3;
60245;PMS5003;46107;53.356;-1.524;2023-04-19T15:58:08;2;2;
60245;PMS5003;46107;53.356;-1.524;2023-04-19T16:00:35;6;3;
60245;PMS5003;46107;53.356;-1.524;2023-04-19T16:03:03;3;3;
60245;PMS5003;46107;53.356;-1.524;2023-04-19T16:05:30;4;4;
60245;PMS5003;46107;53.356;-1.524;2023-04-19T16:08:01;5;4;
60245;PMS5003;46107;53.356;-1.524;2023-04-19T16:10:30;4;4;
60245;PMS5003;46107;53.356;-1.524;2023-04-19T16:12:58;5;3;
60245;PMS5003;46107;53.356;-1.524;2023-04-19T16:15:26;6;4;